sensor_id;sensor_type;location;lat;lon;timestamp;pressure;altitude;pressure_sealevel;temperature;humidity
21574;BME280;10948;48.706;9.258;2023-02-05T00:00:43;99799.28;;;2.92;100.00
21574;BME280;10948;48.706;9.258;2023-02-05T00:03:08;99797.50;;;2.67;100.00
21574;BME280;10948;48.706;9.258;2023-02-05T00:05:33;99802.72;;;2.97;100.00
21574;BME280;10948;48.706;9.258;2023-02-05T00:07:58;99801.03;;;2.93;100.00
21574;BME280;10948;48.706;9.258;2023-02-05T00:10:24;99800.16;;;2.92;100.00
21574;BME280;10948;48.706;9.258;2023-02-05T00:12:49;99798.41;;;2.76;100.00
21574;BME280;10948;48.706;9.258;2023-02-05T00:15:14;99798.50;;;3.20;100.00
21574;BME280;10948;48.706;9.258;2023-02-05T00:17:40;99796.72;;;3.02;100.00
21574;BME280;10948;48.706;9.258;2023-02-05T00:20:05;99788.19;;;3.03;100.00
21574;BME280;10948;48.706;9.258;2023-02-05T00:22:30;99797.63;;;3.18;100.00
21574;BME280;10948;48.706;9.258;2023-02-05T00:24:56;99782.19;;;3.00;100.00
21574;BME280;10948;48.706;9.258;2023-02-05T00:27:21;99788.22;;;3.20;100.00
21574;BME280;10948;48.706;9.258;2023-02-05T00:29:46;99782.19;;;3.18;100.00
21574;BME280;10948;48.706;9.258;2023-02-05T00:32:11;99786.47;;;3.20;100.00
21574;BME280;10948;48.706;9.258;2023-02-05T00:34:37;99777.06;;;3.24;100.00
21574;BME280;10948;48.706;9.258;2023-02-05T00:37:02;99777.03;;;3.00;100.00
21574;BME280;10948;48.706;9.258;2023-02-05T00:39:27;99769.31;;;3.00;100.00
21574;BME280;10948;48.706;9.258;2023-02-05T00:41:52;99774.47;;;3.12;100.00
21574;BME280;10948;48.706;9.258;2023-02-05T00:44:18;99775.28;;;2.87;100.00
21574;BME280;10948;48.706;9.258;2023-02-05T00:46:43;99776.16;;;2.89;100.00
21574;BME280;10948;48.706;9.258;2023-02-05T00:49:08;99782.09;;;2.73;100.00
21574;BME280;10948;48.706;9.258;2023-02-05T00:51:33;99782.13;;;2.77;100.00
21574;BME280;10948;48.706;9.258;2023-02-05T00:53:59;99780.47;;;3.17;100.00
21574;BME280;10948;48.706;9.258;2023-02-05T00:56:24;99785.66;;;3.20;100.00
21574;BME280;10948;48.706;9.258;2023-02-05T00:58:49;99781.28;;;2.98;100.00
21574;BME280;10948;48.706;9.258;2023-02-05T01:01:15;99785.56;;;2.91;100.00
21574;BME280;10948;48.706;9.258;2023-02-05T01:03:40;99784.72;;;2.89;100.00
21574;BME280;10948;48.706;9.258;2023-02-05T01:06:05;99777.88;;;2.99;100.00
21574;BME280;10948;48.706;9.258;2023-02-05T01:08:31;99785.56;;;2.81;100.00
21574;BME280;10948;48.706;9.258;2023-02-05T01:10:56;99777.03;;;3.03;100.00
21574;BME280;10948;48.706;9.258;2023-02-05T01:13:22;99777.91;;;3.18;100.00
21574;BME280;10948;48.706;9.258;2023-02-05T01:15:47;99775.34;;;3.14;100.00
21574;BME280;10948;48.706;9.258;2023-02-05T01:18:12;99769.31;;;3.09;100.00
21574;BME280;10948;48.706;9.258;2023-02-05T01:20:38;99781.28;;;2.84;100.00
21574;BME280;10948;48.706;9.258;2023-02-05T01:23:03;99776.16;;;2.89;100.00
21574;BME280;10948;48.706;9.258;2023-02-05T01:25:29;99774.41;;;2.85;100.00
21574;BME280;10948;48.706;9.258;2023-02-05T01:27:54;99775.25;;;2.82;100.00
21574;BME280;10948;48.706;9.258;2023-02-05T01:30:19;99767.59;;;3.11;100.00
21574;BME280;10948;48.706;9.258;2023-02-05T01:32:44;99756.47;;;3.10;100.00
21574;BME280;10948;48.706;9.258;2023-02-05T01:35:09;99763.28;;;2.80;100.00
21574;BME280;10948;48.706;9.258;2023-02-05T01:37:35;99765.84;;;2.80;100.00
21574;BME280;10948;48.706;9.258;2023-02-05T01:40:00;99763.25;;;2.77;100.00
21574;BME280;10948;48.706;9.258;2023-02-05T01:42:26;99758.09;;;2.72;100.00
21574;BME280;10948;48.706;9.258;2023-02-05T01:47:36;99751.25;;;2.76;100.00
21574;BME280;10948;48.706;9.258;2023-02-05T01:50:02;99745.28;;;2.89;100.00
21574;BME280;10948;48.706;9.258;2023-02-05T01:52:27;99752.16;;;2.85;100.00
21574;BME280;10948;48.706;9.258;2023-02-05T01:54:52;99745.28;;;2.83;100.00
21574;BME280;10948;48.706;9.258;2023-02-05T01:57:19;99735.84;;;2.79;100.00
21574;BME280;10948;48.706;9.258;2023-02-05T01:59:46;99736.75;;;3.02;100.00
21574;BME280;10948;48.706;9.258;2023-02-05T02:02:12;99729.88;;;2.93;100.00
21574;BME280;10948;48.706;9.258;2023-02-05T02:04:49;99730.75;;;3.15;100.00
21574;BME280;10948;48.706;9.258;2023-02-05T02:07:17;99727.31;;;3.19;100.00
21574;BME280;10948;48.706;9.258;2023-02-05T02:09:43;99717.00;;;2.87;100.00
21574;BME280;10948;48.706;9.258;2023-02-05T02:12:10;99714.44;;;2.84;100.00
21574;BME280;10948;48.706;9.258;2023-02-05T02:14:36;99715.31;;;3.03;100.00
21574;BME280;10948;48.706;9.258;2023-02-05T02:17:03;99717.88;;;2.97;100.00
21574;BME280;10948;48.706;9.258;2023-02-05T02:19:40;99708.44;;;2.81;100.00
21574;BME280;10948;48.706;9.258;2023-02-05T02:27:33;99705.06;;;3.06;100.00
21574;BME280;10948;48.706;9.258;2023-02-05T02:32:45;99695.63;;;3.12;100.00
21574;BME280;10948;48.706;9.258;2023-02-05T02:35:15;99696.44;;;2.89;100.00
21574;BME280;10948;48.706;9.258;2023-02-05T02:38:02;99699.03;;;2.93;100.00
21574;BME280;10948;48.706;9.258;2023-02-05T02:40:49;99698.19;;;3.02;100.00
21574;BME280;10948;48.706;9.258;2023-02-05T02:43:17;99693.03;;;2.94;100.00
21574;BME280;10948;48.706;9.258;2023-02-05T02:45:48;99693.88;;;2.93;100.00
21574;BME280;10948;48.706;9.258;2023-02-05T02:48:15;99691.31;;;2.92;100.00
21574;BME280;10948;48.706;9.258;2023-02-05T02:50:42;99691.31;;;2.86;100.00
21574;BME280;10948;48.706;9.258;2023-02-05T02:53:16;99693.03;;;2.93;100.00
21574;BME280;10948;48.706;9.258;2023-02-05T02:55:43;99691.31;;;2.83;100.00
21574;BME280;10948;48.706;9.258;2023-02-05T02:58:14;99682.72;;;2.66;100.00
21574;BME280;10948;48.706;9.258;2023-02-05T03:00:40;99680.16;;;2.66;100.00
21574;BME280;10948;48.706;9.258;2023-02-05T03:03:07;99680.13;;;2.58;100.00
21574;BME280;10948;48.706;9.258;2023-02-05T03:05:35;99674.16;;;2.82;100.00
21574;BME280;10948;48.706;9.258;2023-02-05T03:08:06;99666.47;;;2.89;100.00
21574;BME280;10948;48.706;9.258;2023-02-05T03:10:41;99669.03;;;2.88;100.00
21574;BME280;10948;48.706;9.258;2023-02-05T03:13:08;99668.19;;;2.93;100.00
21574;BME280;10948;48.706;9.258;2023-02-05T03:15:35;99663.91;;;2.89;100.00
21574;BME280;10948;48.706;9.258;2023-02-05T03:18:00;99674.16;;;2.79;100.00
21574;BME280;10948;48.706;9.258;2023-02-05T03:20:27;99675.88;;;2.80;100.00
21574;BME280;10948;48.706;9.258;2023-02-05T03:22:54;99675.88;;;2.68;100.00
21574;BME280;10948;48.706;9.258;2023-02-05T03:25:20;99676.75;;;2.83;100.00
21574;BME280;10948;48.706;9.258;2023-02-05T03:27:46;99667.31;;;2.99;100.00
21574;BME280;10948;48.706;9.258;2023-02-05T03:30:11;99666.44;;;2.91;100.00
21574;BME280;10948;48.706;9.258;2023-02-05T03:35:24;99671.59;;;2.83;100.00
21574;BME280;10948;48.706;9.258;2023-02-05T03:38:37;99670.72;;;2.77;100.00
21574;BME280;10948;48.706;9.258;2023-02-05T03:53:05;99649.31;;;2.84;100.00
21574;BME280;10948;48.706;9.258;2023-02-05T03:55:35;99651.91;;;2.87;100.00
21574;BME280;10948;48.706;9.258;2023-02-05T03:58:13;99655.28;;;2.71;100.00
21574;BME280;10948;48.706;9.258;2023-02-05T04:00:43;99656.13;;;2.58;100.00
21574;BME280;10948;48.706;9.258;2023-02-05T04:03:08;99661.25;;;2.53;100.00
21574;BME280;10948;48.706;9.258;2023-02-05T04:05:34;99665.59;;;2.77;100.00
21574;BME280;10948;48.706;9.258;2023-02-05T04:07:59;99653.59;;;2.85;100.00
21574;BME280;10948;48.706;9.258;2023-02-05T04:10:25;99645.03;;;2.77;100.00
21574;BME280;10948;48.706;9.258;2023-02-05T04:12:51;99647.59;;;2.69;100.00
21574;BME280;10948;48.706;9.258;2023-02-05T04:15:16;99628.75;;;2.66;100.00
21574;BME280;10948;48.706;9.258;2023-02-05T04:17:41;99630.47;;;2.77;100.00
21574;BME280;10948;48.706;9.258;2023-02-05T04:20:07;99633.00;;;2.62;100.00
21574;BME280;10948;48.706;9.258;2023-02-05T04:22:32;99633.00;;;2.52;100.00
21574;BME280;10948;48.706;9.258;2023-02-05T04:24:57;99633.88;;;2.60;100.00
21574;BME280;10948;48.706;9.258;2023-02-05T04:27:22;99638.13;;;2.46;100.00
21574;BME280;10948;48.706;9.258;2023-02-05T04:29:48;99631.31;;;2.54;100.00
21574;BME280;10948;48.706;9.258;2023-02-05T04:32:13;99631.31;;;2.54;100.00
21574;BME280;10948;48.706;9.258;2023-02-05T04:34:38;99629.59;;;2.53;100.00
21574;BME280;10948;48.706;9.258;2023-02-05T04:37:03;99634.72;;;2.47;100.00
21574;BME280;10948;48.706;9.258;2023-02-05T04:39:29;99639.00;;;2.55;100.00
21574;BME280;10948;48.706;9.258;2023-02-05T04:41:54;99630.44;;;2.50;100.00
21574;BME280;10948;48.706;9.258;2023-02-05T04:44:19;99631.28;;;2.33;100.00
21574;BME280;10948;48.706;9.258;2023-02-05T04:46:44;99629.53;;;2.38;100.00
21574;BME280;10948;48.706;9.258;2023-02-05T04:49:10;99637.28;;;2.45;100.00
21574;BME280;10948;48.706;9.258;2023-02-05T04:51:35;99638.13;;;2.52;100.00
21574;BME280;10948;48.706;9.258;2023-02-05T04:54:00;99643.19;;;2.19;100.00
21574;BME280;10948;48.706;9.258;2023-02-05T04:56:26;99645.75;;;2.11;100.00
21574;BME280;10948;48.706;9.258;2023-02-05T04:58:51;99641.44;;;2.06;100.00
21574;BME280;10948;48.706;9.258;2023-02-05T05:01:17;99642.25;;;1.96;100.00
21574;BME280;10948;48.706;9.258;2023-02-05T05:03:43;99642.34;;;2.21;100.00
21574;BME280;10948;48.706;9.258;2023-02-05T05:06:08;99640.63;;;2.22;100.00
21574;BME280;10948;48.706;9.258;2023-02-05T05:08:34;99638.94;;;2.21;100.00
21574;BME280;10948;48.706;9.258;2023-02-05T05:10:59;99632.03;;;2.02;100.00
21574;BME280;10948;48.706;9.258;2023-02-05T05:13:24;99637.22;;;2.18;100.00
21574;BME280;10948;48.706;9.258;2023-02-05T05:15:56;99638.00;;;2.04;100.00
21574;BME280;10948;48.706;9.258;2023-02-05T05:18:21;99644.75;;;1.84;100.00
21574;BME280;10948;48.706;9.258;2023-02-05T05:20:46;99655.00;;;1.78;100.00
21574;BME280;10948;48.706;9.258;2023-02-05T05:23:11;99655.00;;;1.75;100.00
21574;BME280;10948;48.706;9.258;2023-02-05T05:25:43;99651.63;;;1.88;100.00
21574;BME280;10948;48.706;9.258;2023-02-05T05:28:09;99656.84;;;2.09;100.00
21574;BME280;10948;48.706;9.258;2023-02-05T05:30:37;99646.56;;;2.00;100.00
21574;BME280;10948;48.706;9.258;2023-02-05T05:33:02;99658.47;;;1.89;100.00
21574;BME280;10948;48.706;9.258;2023-02-05T05:35:27;99665.34;;;1.99;100.00
21574;BME280;10948;48.706;9.258;2023-02-05T05:37:54;99649.19;;;2.22;100.00
21574;BME280;10948;48.706;9.258;2023-02-05T05:40:20;99654.28;;;2.07;100.00
21574;BME280;10948;48.706;9.258;2023-02-05T05:43:03;99656.75;;;1.85;100.00
21574;BME280;10948;48.706;9.258;2023-02-05T05:45:47;99649.22;;;2.21;100.00
21574;BME280;10948;48.706;9.258;2023-02-05T05:48:13;99645.81;;;2.32;100.00
21574;BME280;10948;48.706;9.258;2023-02-05T05:50:38;99661.19;;;2.22;100.00
21574;BME280;10948;48.706;9.258;2023-02-05T05:53:03;99655.22;;;2.30;100.00
21574;BME280;10948;48.706;9.258;2023-02-05T05:55:28;99661.97;;;2.06;100.00
21574;BME280;10948;48.706;9.258;2023-02-05T05:57:54;99663.72;;;2.16;100.00
21574;BME280;10948;48.706;9.258;2023-02-05T06:00:19;99662.06;;;2.25;100.00
21574;BME280;10948;48.706;9.258;2023-02-05T06:02:44;99647.47;;;2.26;100.00
21574;BME280;10948;48.706;9.258;2023-02-05T06:05:10;99648.31;;;2.16;100.00
21574;BME280;10948;48.706;9.258;2023-02-05T06:07:35;99641.53;;;2.27;100.00
21574;BME280;10948;48.706;9.258;2023-02-05T06:10:00;99643.13;;;2.04;100.00
21574;BME280;10948;48.706;9.258;2023-02-05T06:12:25;99629.47;;;2.15;100.00
21574;BME280;10948;48.706;9.258;2023-02-05T06:14:51;99623.53;;;2.16;100.00
21574;BME280;10948;48.706;9.258;2023-02-05T06:17:16;99625.16;;;1.96;100.00
21574;BME280;10948;48.706;9.258;2023-02-05T06:19:41;99625.22;;;2.11;100.00
21574;BME280;10948;48.706;9.258;2023-02-05T06:22:06;99625.19;;;2.07;100.00
21574;BME280;10948;48.706;9.258;2023-02-05T06:24:31;99625.91;;;1.79;100.00
21574;BME280;10948;48.706;9.258;2023-02-05T06:26:57;99620.81;;;1.82;100.00
21574;BME280;10948;48.706;9.258;2023-02-05T06:29:22;99621.72;;;1.94;100.00
21574;BME280;10948;48.706;9.258;2023-02-05T06:31:47;99634.56;;;1.97;100.00
21574;BME280;10948;48.706;9.258;2023-02-05T06:34:12;99637.94;;;1.92;100.00
21574;BME280;10948;48.706;9.258;2023-02-05T06:36:37;99639.69;;;1.96;100.00
21574;BME280;10948;48.706;9.258;2023-02-05T06:39:03;99639.66;;;1.87;100.00
21574;BME280;10948;48.706;9.258;2023-02-05T06:41:28;99637.13;;;1.93;100.00
21574;BME280;10948;48.706;9.258;2023-02-05T06:43:53;99640.59;;;2.05;100.00
21574;BME280;10948;48.706;9.258;2023-02-05T06:46:18;99635.50;;;2.20;100.00
21574;BME280;10948;48.706;9.258;2023-02-05T06:48:44;99636.31;;;2.07;100.00
21574;BME280;10948;48.706;9.258;2023-02-05T06:51:09;99650.81;;;1.98;100.00
21574;BME280;10948;48.706;9.258;2023-02-05T06:53:34;99648.28;;;2.10;100.00
21574;BME280;10948;48.706;9.258;2023-02-05T06:55:59;99652.56;;;2.11;100.00
21574;BME280;10948;48.706;9.258;2023-02-05T06:58:25;99656.84;;;2.07;100.00
21574;BME280;10948;48.706;9.258;2023-02-05T07:00:50;99653.44;;;2.10;100.00
21574;BME280;10948;48.706;9.258;2023-02-05T07:03:15;99651.81;;;2.33;100.00
21574;BME280;10948;48.706;9.258;2023-02-05T07:05:40;99638.94;;;2.21;100.00
21574;BME280;10948;48.706;9.258;2023-02-05T07:08:06;99635.56;;;2.38;100.00
21574;BME280;10948;48.706;9.258;2023-02-05T07:10:31;99638.13;;;2.34;100.00
21574;BME280;10948;48.706;9.258;2023-02-05T07:12:56;99644.09;;;2.34;100.00
21574;BME280;10948;48.706;9.258;2023-02-05T07:15:21;99650.13;;;2.47;100.00
21574;BME280;10948;48.706;9.258;2023-02-05T07:17:47;99649.22;;;2.28;100.00
21574;BME280;10948;48.706;9.258;2023-02-05T07:20:12;99664.66;;;2.33;100.00
21574;BME280;10948;48.706;9.258;2023-02-05T07:22:37;99660.44;;;2.53;100.00
21574;BME280;10948;48.706;9.258;2023-02-05T07:25:02;99654.38;;;2.40;100.00
21574;BME280;10948;48.706;9.258;2023-02-05T07:27:28;99656.09;;;2.47;100.00
21574;BME280;10948;48.706;9.258;2023-02-05T07:29:54;99662.00;;;2.18;100.00
21574;BME280;10948;48.706;9.258;2023-02-05T07:32:19;99652.59;;;2.21;100.00
21574;BME280;10948;48.706;9.258;2023-02-05T07:34:44;99646.66;;;2.34;100.00
21574;BME280;10948;48.706;9.258;2023-02-05T07:37:10;99644.06;;;2.28;100.00
21574;BME280;10948;48.706;9.258;2023-02-05T07:39:35;99641.50;;;2.24;100.00
21574;BME280;10948;48.706;9.258;2023-02-05T07:42:01;99645.00;;;2.51;100.00
21574;BME280;10948;48.706;9.258;2023-02-05T07:44:26;99634.66;;;2.29;100.00
21574;BME280;10948;48.706;9.258;2023-02-05T07:46:51;99639.88;;;2.57;100.00
21574;BME280;10948;48.706;9.258;2023-02-05T07:49:16;99631.28;;;2.57;100.00
21574;BME280;10948;48.706;9.258;2023-02-05T07:51:41;99635.56;;;2.47;100.00
21574;BME280;10948;48.706;9.258;2023-02-05T07:54:07;99631.28;;;2.57;100.00
21574;BME280;10948;48.706;9.258;2023-02-05T07:56:33;99619.31;;;2.62;100.00
21574;BME280;10948;48.706;9.258;2023-02-05T07:58:58;99626.16;;;2.57;100.00
21574;BME280;10948;48.706;9.258;2023-02-05T08:01:23;99625.28;;;2.49;100.00
21574;BME280;10948;48.706;9.258;2023-02-05T08:03:49;99628.75;;;2.58;100.00
21574;BME280;10948;48.706;9.258;2023-02-05T08:06:14;99631.28;;;2.57;100.00
21574;BME280;10948;48.706;9.258;2023-02-05T08:08:40;99637.31;;;2.53;100.00
21574;BME280;10948;48.706;9.258;2023-02-05T08:11:05;99626.16;;;2.48;100.00
21574;BME280;10948;48.706;9.258;2023-02-05T08:13:31;99631.28;;;2.45;100.00
21574;BME280;10948;48.706;9.258;2023-02-05T08:15:56;99627.88;;;2.50;100.00
21574;BME280;10948;48.706;9.258;2023-02-05T08:18:22;99626.13;;;2.39;100.00
21574;BME280;10948;48.706;9.258;2023-02-05T08:20:50;99628.72;;;2.57;100.00
21574;BME280;10948;48.706;9.258;2023-02-05T08:23:16;99621.91;;;2.68;100.00
21574;BME280;10948;48.706;9.258;2023-02-05T08:25:41;99624.47;;;2.69;100.00
21574;BME280;10948;48.706;9.258;2023-02-05T08:28:07;99621.06;;;2.81;100.00
21574;BME280;10948;48.706;9.258;2023-02-05T08:30:32;99615.06;;;2.89;100.00
21574;BME280;10948;48.706;9.258;2023-02-05T08:32:57;99620.19;;;2.86;100.00
21574;BME280;10948;48.706;9.258;2023-02-05T08:35:23;99615.88;;;2.67;100.00
21574;BME280;10948;48.706;9.258;2023-02-05T08:37:48;99619.31;;;2.81;100.00
21574;BME280;10948;48.706;9.258;2023-02-05T08:40:13;99619.34;;;2.95;100.00
21574;BME280;10948;48.706;9.258;2023-02-05T08:42:38;99619.34;;;3.01;100.00
21574;BME280;10948;48.706;9.258;2023-02-05T08:45:04;99612.47;;;2.82;100.00
21574;BME280;10948;48.706;9.258;2023-02-05T08:47:33;99610.75;;;2.99;100.00
21574;BME280;10948;48.706;9.258;2023-02-05T08:49:58;99606.47;;;3.01;100.00
21574;BME280;10948;48.706;9.258;2023-02-05T08:52:23;99598.78;;;3.01;100.00
21574;BME280;10948;48.706;9.258;2023-02-05T08:54:50;99597.06;;;2.88;100.00
21574;BME280;10948;48.706;9.258;2023-02-05T08:57:15;99593.63;;;2.89;100.00
21574;BME280;10948;48.706;9.258;2023-02-05T08:59:41;99595.31;;;3.06;100.00
21574;BME280;10948;48.706;9.258;2023-02-05T09:02:06;99589.28;;;3.33;100.00
21574;BME280;10948;48.706;9.258;2023-02-05T09:04:31;99578.16;;;3.19;100.00
21574;BME280;10948;48.706;9.258;2023-02-05T09:06:56;99571.25;;;3.42;100.00
21574;BME280;10948;48.706;9.258;2023-02-05T09:09:22;99562.69;;;3.37;100.00
21574;BME280;10948;48.706;9.258;2023-02-05T09:11:47;99549.78;;;3.49;100.00
21574;BME280;10948;48.706;9.258;2023-02-05T09:14:13;99546.34;;;3.48;100.00
21574;BME280;10948;48.706;9.258;2023-02-05T09:16:38;99535.22;;;3.46;100.00
21574;BME280;10948;48.706;9.258;2023-02-05T09:19:03;99538.63;;;3.53;100.00
21574;BME280;10948;48.706;9.258;2023-02-05T09:21:28;99540.38;;;3.42;100.00
21574;BME280;10948;48.706;9.258;2023-02-05T09:23:54;99541.25;;;3.39;100.00
21574;BME280;10948;48.706;9.258;2023-02-05T09:26:20;99542.91;;;3.58;100.00
21574;BME280;10948;48.706;9.258;2023-02-05T09:28:47;99550.59;;;3.55;100.00
21574;BME280;10948;48.706;9.258;2023-02-05T09:31:15;99557.47;;;3.61;100.00
21574;BME280;10948;48.706;9.258;2023-02-05T09:33:40;99555.75;;;3.57;100.00
21574;BME280;10948;48.706;9.258;2023-02-05T09:36:13;99554.84;;;3.71;100.00
21574;BME280;10948;48.706;9.258;2023-02-05T09:38:38;99550.53;;;3.75;100.00
21574;BME280;10948;48.706;9.258;2023-02-05T09:41:27;99553.09;;;3.78;100.00
21574;BME280;10948;48.706;9.258;2023-02-05T09:46:19;99537.72;;;3.61;100.00
21574;BME280;10948;48.706;9.258;2023-02-05T09:48:54;99538.63;;;3.57;100.00
21574;BME280;10948;48.706;9.258;2023-02-05T09:51:24;99537.75;;;3.55;100.00
21574;BME280;10948;48.706;9.258;2023-02-05T09:53:55;99535.13;;;3.69;100.00
21574;BME280;10948;48.706;9.258;2023-02-05T09:56:21;99532.47;;;3.87;100.00
21574;BME280;10948;48.706;9.258;2023-02-05T09:58:48;99522.19;;;3.82;100.00
21574;BME280;10948;48.706;9.258;2023-02-05T10:01:29;99529.13;;;3.73;100.00
21574;BME280;10948;48.706;9.258;2023-02-05T10:04:00;99517.97;;;3.66;100.00
21574;BME280;10948;48.706;9.258;2023-02-05T10:25:02;99505.00;;;3.87;100.00
21574;BME280;10948;48.706;9.258;2023-02-05T10:27:47;99507.53;;;3.96;100.00
21574;BME280;10948;48.706;9.258;2023-02-05T10:30:20;99508.28;;;4.07;100.00
21574;BME280;10948;48.706;9.258;2023-02-05T10:32:56;99509.13;;;4.11;100.00
21574;BME280;10948;48.706;9.258;2023-02-05T10:35:24;99510.94;;;4.00;100.00
21574;BME280;10948;48.706;9.258;2023-02-05T10:37:53;99502.25;;;4.14;100.00
21574;BME280;10948;48.706;9.258;2023-02-05T10:40:23;99497.97;;;4.15;100.00
21574;BME280;10948;48.706;9.258;2023-02-05T10:45:33;99477.28;;;4.24;100.00
21574;BME280;10948;48.706;9.258;2023-02-05T10:48:02;99476.41;;;4.25;100.00
21574;BME280;10948;48.706;9.258;2023-02-05T10:52:57;99463.41;;;4.40;100.00
21574;BME280;10948;48.706;9.258;2023-02-05T10:55:22;99460.59;;;4.67;100.00
21574;BME280;10948;48.706;9.258;2023-02-05T10:57:47;99458.75;;;4.78;100.00
21574;BME280;10948;48.706;9.258;2023-02-05T11:02:39;99456.47;;;4.49;100.00
21574;BME280;10948;48.706;9.258;2023-02-05T11:05:07;99452.03;;;4.63;100.00
21574;BME280;10948;48.706;9.258;2023-02-05T11:07:49;99457.91;;;4.79;100.00
21574;BME280;10948;48.706;9.258;2023-02-05T11:10:18;99458.72;;;4.81;100.00
21574;BME280;10948;48.706;9.258;2023-02-05T11:12:44;99455.19;;;4.91;100.00
21574;BME280;10948;48.706;9.258;2023-02-05T11:15:30;99442.09;;;5.08;100.00
21574;BME280;10948;48.706;9.258;2023-02-05T11:18:03;99446.72;;;4.77;100.00
21574;BME280;10948;48.706;9.258;2023-02-05T11:20:30;99447.41;;;4.95;100.00
21574;BME280;10948;48.706;9.258;2023-02-05T11:25:53;99437.22;;;4.80;100.00
21574;BME280;10948;48.706;9.258;2023-02-05T11:28:19;99433.78;;;4.83;100.00
21574;BME280;10948;48.706;9.258;2023-02-05T11:30:45;99435.59;;;4.72;100.00
21574;BME280;10948;48.706;9.258;2023-02-05T11:35:49;99422.38;;;5.02;100.00
21574;BME280;10948;48.706;9.258;2023-02-05T11:38:29;99413.97;;;4.85;100.00
21574;BME280;10948;48.706;9.258;2023-02-05T11:40:58;99407.84;;;4.95;100.00
21574;BME280;10948;48.706;9.258;2023-02-05T11:43:31;99403.25;;;5.20;100.00
21574;BME280;10948;48.706;9.258;2023-02-05T11:45:57;99407.44;;;5.29;100.00
21574;BME280;10948;48.706;9.258;2023-02-05T11:51:01;99403.03;;;5.35;100.00
21574;BME280;10948;48.706;9.258;2023-02-05T11:53:27;99397.19;;;5.21;100.00
21574;BME280;10948;48.706;9.258;2023-02-05T11:55:57;99392.91;;;5.20;100.00
21574;BME280;10948;48.706;9.258;2023-02-05T11:58:26;99392.88;;;5.23;100.00
21574;BME280;10948;48.706;9.258;2023-02-05T12:00:55;99388.44;;;5.34;100.00
21574;BME280;10948;48.706;9.258;2023-02-05T12:03:22;99385.78;;;5.39;100.00
21574;BME280;10948;48.706;9.258;2023-02-05T12:11:20;99383.28;;;5.34;100.00
21574;BME280;10948;48.706;9.258;2023-02-05T12:13:52;99380.44;;;5.52;100.00
21574;BME280;10948;48.706;9.258;2023-02-05T12:21:18;99375.44;;;5.40;100.00
21574;BME280;10948;48.706;9.258;2023-02-05T12:26:32;99371.09;;;5.44;100.00
21574;BME280;10948;48.706;9.258;2023-02-05T12:32:00;99361.56;;;5.49;100.00
21574;BME280;10948;48.706;9.258;2023-02-05T12:37:04;99354.81;;;5.40;100.00
21574;BME280;10948;48.706;9.258;2023-02-05T12:39:37;99354.94;;;5.31;100.00
21574;BME280;10948;48.706;9.258;2023-02-05T12:42:07;99349.78;;;5.31;100.00
21574;BME280;10948;48.706;9.258;2023-02-05T12:47:25;99346.09;;;5.47;100.00
21574;BME280;10948;48.706;9.258;2023-02-05T12:52:47;99347.94;;;5.39;100.00
21574;BME280;10948;48.706;9.258;2023-02-05T12:57:58;99340.25;;;5.35;100.00
21574;BME280;10948;48.706;9.258;2023-02-05T13:00:26;99350.44;;;5.44;100.00
21574;BME280;10948;48.706;9.258;2023-02-05T13:08:28;99346.91;;;5.49;100.00
21574;BME280;10948;48.706;9.258;2023-02-05T13:13:51;99345.13;;;5.56;100.00
21574;BME280;10948;48.706;9.258;2023-02-05T13:16:17;99350.28;;;5.54;100.00
21574;BME280;10948;48.706;9.258;2023-02-05T13:18:45;99353.75;;;5.53;100.00
21574;BME280;10948;48.706;9.258;2023-02-05T13:21:17;99349.66;;;5.37;100.00
21574;BME280;10948;48.706;9.258;2023-02-05T13:26:54;99346.41;;;5.23;100.00
21574;BME280;10948;48.706;9.258;2023-02-05T13:29:42;99344.63;;;5.28;100.00
21574;BME280;10948;48.706;9.258;2023-02-05T13:32:10;99347.28;;;5.24;100.00
21574;BME280;10948;48.706;9.258;2023-02-05T13:34:38;99344.19;;;4.97;100.00
21574;BME280;10948;48.706;9.258;2023-02-05T13:49:57;99332.84;;;5.11;100.00
21574;BME280;10948;48.706;9.258;2023-02-05T14:00:07;99336.47;;;4.97;100.00
21574;BME280;10948;48.706;9.258;2023-02-05T14:02:47;99336.28;;;5.12;100.00
21574;BME280;10948;48.706;9.258;2023-02-05T14:05:13;99336.59;;;4.86;100.00
21574;BME280;10948;48.706;9.258;2023-02-05T14:07:48;99338.38;;;4.83;100.00
21574;BME280;10948;48.706;9.258;2023-02-05T14:10:27;99338.16;;;4.97;100.00
21574;BME280;10948;48.706;9.258;2023-02-05T14:13:39;99342.56;;;4.90;100.00
21574;BME280;10948;48.706;9.258;2023-02-05T14:15:41;99344.19;;;4.98;100.00
21574;BME280;10948;48.706;9.258;2023-02-05T14:18:08;99342.56;;;4.93;100.00
21574;BME280;10948;48.706;9.258;2023-02-05T14:20:35;99345.13;;;4.93;100.00
21574;BME280;10948;48.706;9.258;2023-02-05T14:23:01;99332.25;;;4.91;100.00
21574;BME280;10948;48.706;9.258;2023-02-05T14:30:33;99330.25;;;5.13;100.00
21574;BME280;10948;48.706;9.258;2023-02-05T14:33:03;99331.22;;;5.06;100.00
21574;BME280;10948;48.706;9.258;2023-02-05T14:35:36;99326.22;;;4.91;100.00
21574;BME280;10948;48.706;9.258;2023-02-05T14:38:19;99327.97;;;4.89;100.00
21574;BME280;10948;48.706;9.258;2023-02-05T14:40:59;99324.50;;;4.93;100.00
21574;BME280;10948;48.706;9.258;2023-02-05T14:43:31;99329.25;;;4.56;100.00
21574;BME280;10948;48.706;9.258;2023-02-05T14:45:57;99330.78;;;4.71;100.00
21574;BME280;10948;48.706;9.258;2023-02-05T14:48:27;99324.59;;;4.84;100.00
21574;BME280;10948;48.706;9.258;2023-02-05T14:51:00;99324.59;;;4.84;100.00
21574;BME280;10948;48.706;9.258;2023-02-05T14:53:26;99333.34;;;4.71;100.00
21574;BME280;10948;48.706;9.258;2023-02-05T14:55:53;99334.16;;;4.74;100.00
21574;BME280;10948;48.706;9.258;2023-02-05T14:58:24;99341.06;;;4.74;100.00
21574;BME280;10948;48.706;9.258;2023-02-05T15:00:51;99341.19;;;4.62;100.00
21574;BME280;10948;48.706;9.258;2023-02-05T15:03:37;99345.47;;;4.63;100.00
21574;BME280;10948;48.706;9.258;2023-02-05T15:06:04;99342.16;;;4.53;100.00
21574;BME280;10948;48.706;9.258;2023-02-05T15:08:36;99344.72;;;4.52;100.00